Time;durP1;ratioP1;P1;durP2;ratioP2;P2;SDS_P1;SDS_P2;PMS_P1;PMS_P2;Temp;Humidity;BMP_temperature;BMP_pressure;BME280_temperature;BME280_humidity;BME280_pressure;Samples;Min_cycle;Max_cycle;Signal;HPM_P1;HPM_P2
2023/10/26 00:01:15;;;;;;;0.00;0.00;;;7.50;100.00;;;;;;4929281;29;20051;-75
2023/10/26 00:03:41;;;;;;;0.00;0.00;;;7.60;100.00;;;;;;4929440;29;20051;-76
2023/10/26 00:06:09;;;;;;;0.00;0.00;;;7.60;100.00;;;;;;4931514;29;20051;-76
2023/10/26 00:11:50;;;;;;;0.00;0.00;;;7.60;100.00;;;;;;4944873;28;20042;-76
2023/10/26 00:14:18;;;;;;;0.00;0.00;;;7.70;100.00;;;;;;4923652;28;20043;-75
2023/10/26 00:16:45;;;;;;;0.00;0.00;;;7.70;100.00;;;;;;4936059;28;20055;-76
2023/10/26 00:19:12;;;;;;;0.00;0.00;;;7.80;100.00;;;;;;4935943;28;20047;-75
2023/10/26 00:21:40;;;;;;;0.00;0.00;;;7.80;100.00;;;;;;4932272;29;20393;-75
2023/10/26 00:24:14;;;;;;;0.00;0.00;;;7.80;100.00;;;;;;4925480;29;21149;-75
2023/10/26 00:26:44;;;;;;;0.00;0.00;;;7.80;100.00;;;;;;4922923;29;20055;-75
2023/10/26 00:29:10;;;;;;;0.00;0.00;;;7.90;100.00;;;;;;4936477;28;20056;-75
2023/10/26 00:31:37;;;;;;;0.00;0.00;;;7.90;100.00;;;;;;4916518;28;20067;-75
2023/10/26 00:34:04;;;;;;;0.00;0.00;;;7.90;100.00;;;;;;4945970;28;20054;-75
2023/10/26 00:36:31;;;;;;;0.00;0.00;;;8.00;100.00;;;;;;4935178;28;20711;-75
2023/10/26 00:38:59;;;;;;;0.00;0.00;;;8.00;100.00;;;;;;4917391;29;20055;-75
2023/10/26 00:41:26;;;;;;;0.00;0.00;;;8.00;100.00;;;;;;4916824;28;20138;-75
2023/10/26 00:43:53;;;;;;;0.00;0.00;;;8.10;100.00;;;;;;4946592;29;20043;-75
2023/10/26 00:46:20;;;;;;;0.00;0.00;;;8.10;100.00;;;;;;4946177;29;20137;-75
2023/10/26 00:48:47;;;;;;;0.00;0.00;;;8.10;100.00;;;;;;4937123;28;20460;-75
2023/10/26 00:51:15;;;;;;;0.00;0.00;;;8.10;100.00;;;;;;4930547;29;20523;-75
2023/10/26 00:53:43;;;;;;;0.00;0.00;;;8.20;100.00;;;;;;4936896;28;20065;-75
2023/10/26 00:56:12;;;;;;;0.00;0.00;;;8.20;100.00;;;;;;4942450;28;20055;-75
2023/10/26 00:58:40;;;;;;;0.00;0.00;;;8.20;100.00;;;;;;4940902;29;20133;-75
2023/10/26 01:01:07;;;;;;;0.00;0.00;;;8.20;100.00;;;;;;4934066;28;20106;-74
2023/10/26 01:03:35;;;;;;;0.00;0.00;;;8.30;100.00;;;;;;4918106;29;20082;-74
2023/10/26 01:06:02;;;;;;;0.00;0.00;;;8.30;100.00;;;;;;4917538;29;20624;-74
2023/10/26 01:08:29;;;;;;;0.00;0.00;;;8.30;100.00;;;;;;4933014;29;20130;-74
2023/10/26 01:10:57;;;;;;;0.00;0.00;;;8.30;100.00;;;;;;4945674;29;20051;-74
2023/10/26 01:13:24;;;;;;;0.00;0.00;;;8.30;100.00;;;;;;4924601;29;20063;-74
2023/10/26 01:15:51;;;;;;;0.00;0.00;;;8.40;100.00;;;;;;4926740;29;20055;-74
2023/10/26 01:18:18;;;;;;;0.00;0.00;;;8.40;100.00;;;;;;4918055;28;20051;-74
2023/10/26 01:20:45;;;;;;;0.00;0.00;;;8.40;100.00;;;;;;4930918;29;20102;-74
2023/10/26 01:23:12;;;;;;;0.00;0.00;;;8.50;100.00;;;;;;4916384;29;20091;-74
2023/10/26 01:25:39;;;;;;;0.00;0.00;;;8.50;100.00;;;;;;4940781;28;20082;-74
2023/10/26 01:28:10;;;;;;;0.00;0.00;;;8.50;100.00;;;;;;4936943;28;20134;-74
2023/10/26 01:30:40;;;;;;;0.00;0.00;;;8.50;100.00;;;;;;4941020;28;20055;-74
2023/10/26 01:33:07;;;;;;;0.00;0.00;;;8.60;100.00;;;;;;4921655;29;20063;-74
2023/10/26 01:35:38;;;;;;;0.00;0.00;;;8.60;100.00;;;;;;4939024;28;20047;-74
2023/10/26 01:38:05;;;;;;;0.00;0.00;;;8.60;100.00;;;;;;4920670;29;20070;-75
2023/10/26 01:40:32;;;;;;;0.00;0.00;;;8.60;100.00;;;;;;4934812;29;20123;-74
2023/10/26 01:42:59;;;;;;;0.00;0.00;;;8.70;100.00;;;;;;4927696;29;20077;-74
2023/10/26 01:45:29;;;;;;;0.00;0.00;;;8.70;100.00;;;;;;4942480;28;20075;-74
2023/10/26 01:48:02;;;;;;;0.00;0.00;;;8.70;100.00;;;;;;4927623;29;20146;-75
2023/10/26 01:50:32;;;;;;;0.00;0.00;;;8.70;100.00;;;;;;4938788;29;20055;-75
2023/10/26 01:53:00;;;;;;;0.00;0.00;;;8.80;100.00;;;;;;4923685;29;20481;-75
2023/10/26 01:55:27;;;;;;;0.00;0.00;;;8.80;100.00;;;;;;4924961;28;20649;-74
2023/10/26 01:57:55;;;;;;;0.00;0.00;;;8.80;100.00;;;;;;4925556;29;20111;-75
2023/10/26 02:00:22;;;;;;;0.00;0.00;;;8.80;100.00;;;;;;4936966;29;20055;-74
2023/10/26 02:02:49;;;;;;;0.00;0.00;;;8.90;100.00;;;;;;4921139;29;20922;-74
2023/10/26 02:05:18;;;;;;;0.00;0.00;;;8.90;100.00;;;;;;4925129;28;20062;-74
2023/10/26 02:07:46;;;;;;;0.00;0.00;;;8.90;100.00;;;;;;4925987;29;20150;-74
2023/10/26 02:10:14;;;;;;;0.00;0.00;;;8.90;100.00;;;;;;4920499;29;20074;-74
2023/10/26 02:12:41;;;;;;;0.00;0.00;;;9.00;100.00;;;;;;4930739;29;20525;-74
2023/10/26 02:15:09;;;;;;;0.00;0.00;;;9.00;100.00;;;;;;4943861;29;20102;-74
2023/10/26 02:17:36;;;;;;;0.00;0.00;;;9.00;100.00;;;;;;4946224;28;20079;-75
2023/10/26 02:20:04;;;;;;;0.00;0.00;;;9.00;100.00;;;;;;4946960;28;20055;-74
2023/10/26 02:22:31;;;;;;;0.00;0.00;;;9.10;100.00;;;;;;4944546;29;20409;-74
2023/10/26 02:24:58;;;;;;;0.00;0.00;;;9.10;100.00;;;;;;4921634;29;20055;-74
2023/10/26 02:27:25;;;;;;;0.00;0.00;;;9.10;100.00;;;;;;4921806;29;20047;-74
2023/10/26 02:29:53;;;;;;;0.00;0.00;;;9.10;100.00;;;;;;4938243;29;20476;-74
2023/10/26 02:32:20;;;;;;;0.00;0.00;;;9.20;100.00;;;;;;4936594;29;20464;-75
2023/10/26 02:34:48;;;;;;;0.00;0.00;;;9.20;100.00;;;;;;4938552;28;20044;-75
2023/10/26 02:37:17;;;;;;;0.00;0.00;;;9.20;100.00;;;;;;4927011;29;20529;-74
2023/10/26 02:39:46;;;;;;;0.00;0.00;;;9.20;100.00;;;;;;4944315;29;20110;-74
2023/10/26 02:42:12;;;;;;;0.00;0.00;;;9.20;100.00;;;;;;4926124;29;20056;-74
2023/10/26 02:44:40;;;;;;;0.00;0.00;;;9.20;100.00;;;;;;4938543;28;20043;-74
2023/10/26 02:47:07;;;;;;;0.00;0.00;;;9.20;100.00;;;;;;4945139;28;20039;-74
2023/10/26 02:49:34;;;;;;;0.00;0.00;;;9.30;100.00;;;;;;4939727;29;20055;-74
2023/10/26 02:52:01;;;;;;;0.00;0.00;;;9.30;100.00;;;;;;4930575;29;20051;-74
2023/10/26 02:54:32;;;;;;;0.00;0.00;;;9.30;100.00;;;;;;4947761;28;20152;-74
2023/10/26 02:57:01;;;;;;;0.22;0.22;;;9.30;100.00;;;;;;4931497;29;20155;-74
2023/10/26 02:59:28;;;;;;;0.00;0.00;;;9.30;100.00;;;;;;4940641;29;20055;-75
2023/10/26 03:01:56;;;;;;;0.00;0.00;;;9.30;100.00;;;;;;4941763;28;20654;-74
2023/10/26 03:04:22;;;;;;;0.00;0.00;;;9.30;100.00;;;;;;4919921;28;20633;-74
2023/10/26 03:06:50;;;;;;;0.00;0.00;;;9.40;100.00;;;;;;4918281;29;20047;-74
2023/10/26 03:09:17;;;;;;;0.00;0.00;;;9.40;100.00;;;;;;4937101;29;20059;-74
2023/10/26 03:11:44;;;;;;;0.00;0.00;;;9.40;100.00;;;;;;4941063;28;20070;-74
2023/10/26 03:14:11;;;;;;;0.00;0.00;;;9.40;100.00;;;;;;4933789;28;20062;-70
2023/10/26 03:16:38;;;;;;;0.00;0.00;;;9.40;100.00;;;;;;4925585;29;20051;-70
2023/10/26 03:19:07;;;;;;;0.00;0.00;;;9.40;100.00;;;;;;4936818;28;20700;-70
2023/10/26 03:21:34;;;;;;;0.00;0.00;;;9.40;100.00;;;;;;4937076;28;20048;-70
2023/10/26 03:24:01;;;;;;;0.00;0.00;;;9.40;100.00;;;;;;4921364;29;20055;-70
2023/10/26 03:26:28;;;;;;;0.00;0.00;;;9.50;100.00;;;;;;4919589;29;20816;-70
2023/10/26 03:28:55;;;;;;;0.00;0.00;;;9.50;100.00;;;;;;4915976;29;20122;-70
2023/10/26 03:31:22;;;;;;;0.00;0.00;;;9.50;100.00;;;;;;4934507;28;20051;-70
2023/10/26 03:33:49;;;;;;;0.00;0.00;;;9.50;100.00;;;;;;4911782;29;20060;-70
2023/10/26 03:36:18;;;;;;;0.00;0.00;;;9.50;100.00;;;;;;4937112;28;20079;-70
2023/10/26 03:38:47;;;;;;;0.00;0.00;;;9.50;100.00;;;;;;4930342;28;20682;-70
2023/10/26 03:41:14;;;;;;;0.00;0.00;;;9.50;100.00;;;;;;4933533;28;20052;-70
2023/10/26 03:43:40;;;;;;;0.00;0.00;;;9.50;100.00;;;;;;4933192;28;20047;-70
2023/10/26 03:46:07;;;;;;;0.00;0.00;;;9.50;100.00;;;;;;4932124;29;20154;-70
2023/10/26 03:48:35;;;;;;;0.00;0.00;;;9.50;100.00;;;;;;4933048;28;20051;-70
2023/10/26 03:51:03;;;;;;;0.00;0.00;;;9.50;100.00;;;;;;4915950;29;20077;-70
2023/10/26 03:53:30;;;;;;;0.00;0.00;;;9.50;100.00;;;;;;4934521;28;20055;-70
2023/10/26 03:55:58;;;;;;;0.00;0.00;;;9.50;100.00;;;;;;4918347;29;20063;-70
2023/10/26 03:58:25;;;;;;;0.00;0.00;;;9.50;100.00;;;;;;4918493;29;20047;-70
2023/10/26 04:00:52;;;;;;;0.00;0.00;;;9.50;100.00;;;;;;4925090;29;20054;-70
2023/10/26 04:03:19;;;;;;;0.00;0.00;;;9.60;100.00;;;;;;4931056;29;20862;-70
2023/10/26 04:05:46;;;;;;;0.00;0.00;;;9.60;100.00;;;;;;4938439;29;20056;-70
2023/10/26 04:08:13;;;;;;;1.73;0.32;;;9.60;100.00;;;;;;4918496;29;20067;-70
2023/10/26 04:10:41;;;;;;;0.00;0.00;;;9.50;100.00;;;;;;4937506;28;20058;-70
2023/10/26 04:13:08;;;;;;;0.00;0.00;;;9.50;100.00;;;;;;4920436;29;20063;-70
2023/10/26 04:15:35;;;;;;;0.00;0.00;;;9.50;100.00;;;;;;4935721;28;20110;-70
2023/10/26 04:18:06;;;;;;;0.00;0.00;;;9.50;100.00;;;;;;4943553;29;20086;-70
2023/10/26 04:20:33;;;;;;;0.00;0.00;;;9.50;100.00;;;;;;4933180;28;20206;-70
2023/10/26 04:23:00;;;;;;;0.00;0.00;;;9.50;100.00;;;;;;4923241;29;20083;-70
2023/10/26 04:25:30;;;;;;;0.00;0.00;;;9.50;100.00;;;;;;4930459;28;20047;-70
2023/10/26 04:28:17;;;;;;;0.00;0.00;;;9.50;100.00;;;;;;4919669;29;20066;-70
2023/10/26 04:30:46;;;;;;;0.00;0.00;;;9.40;100.00;;;;;;4934662;29;20111;-70
2023/10/26 04:33:17;;;;;;;0.00;0.00;;;9.40;100.00;;;;;;4909853;29;20047;-70
2023/10/26 04:35:46;;;;;;;0.00;0.00;;;9.40;100.00;;;;;;4915503;29;20087;-70
2023/10/26 04:38:13;;;;;;;0.00;0.00;;;9.40;100.00;;;;;;4918905;29;21774;-70
2023/10/26 04:40:41;;;;;;;0.00;0.00;;;9.30;100.00;;;;;;4914444;28;20728;-70
2023/10/26 04:43:08;;;;;;;0.00;0.00;;;9.30;100.00;;;;;;4936603;28;20069;-70
2023/10/26 04:45:36;;;;;;;0.00;0.00;;;9.30;100.00;;;;;;4932259;28;20051;-70
2023/10/26 04:48:03;;;;;;;0.00;0.00;;;9.30;100.00;;;;;;4932997;29;20043;-70
2023/10/26 04:50:30;;;;;;;0.00;0.00;;;9.30;100.00;;;;;;4921605;29;20055;-70
2023/10/26 04:52:59;;;;;;;0.00;0.00;;;9.30;100.00;;;;;;4935615;29;20056;-70
2023/10/26 04:55:35;;;;;;;0.00;0.00;;;9.20;100.00;;;;;;4942996;28;20053;-71
2023/10/26 04:58:02;;;;;;;0.00;0.00;;;9.20;100.00;;;;;;4939447;29;20052;-71
2023/10/26 05:00:31;;;;;;;0.00;0.00;;;9.20;100.00;;;;;;4917233;28;20047;-71
2023/10/26 05:02:58;;;;;;;0.00;0.00;;;9.20;100.00;;;;;;4930176;28;20066;-71
2023/10/26 05:05:25;;;;;;;0.00;0.00;;;9.20;100.00;;;;;;4931831;28;20059;-72
2023/10/26 05:07:52;;;;;;;0.00;0.00;;;9.20;100.00;;;;;;4937013;28;20079;-74
2023/10/26 05:10:20;;;;;;;0.00;0.00;;;9.20;100.00;;;;;;4915755;28;20055;-72
2023/10/26 05:12:47;;;;;;;0.00;0.00;;;9.20;100.00;;;;;;4933419;29;20925;-72
2023/10/26 05:15:14;;;;;;;0.00;0.00;;;9.10;100.00;;;;;;4933855;28;20699;-74
2023/10/26 05:17:41;;;;;;;0.00;0.00;;;9.10;100.00;;;;;;4928025;29;20054;-72
2023/10/26 05:20:09;;;;;;;0.00;0.00;;;9.10;100.00;;;;;;4924293;29;20050;-71
2023/10/26 05:22:37;;;;;;;0.00;0.00;;;9.10;100.00;;;;;;4918577;29;20055;-72
2023/10/26 05:25:04;;;;;;;0.00;0.00;;;9.10;100.00;;;;;;4914613;29;20047;-73
2023/10/26 05:27:33;;;;;;;0.00;0.00;;;9.10;100.00;;;;;;4938272;29;20055;-72
2023/10/26 05:30:04;;;;;;;0.00;0.00;;;9.10;100.00;;;;;;4927621;29;20162;-72
2023/10/26 05:32:31;;;;;;;0.00;0.00;;;9.10;100.00;;;;;;4938980;28;20660;-75
2023/10/26 05:34:59;;;;;;;0.00;0.00;;;9.10;100.00;;;;;;4917086;29;20113;-76
2023/10/26 05:37:26;;;;;;;0.00;0.00;;;9.10;100.00;;;;;;4935196;29;20792;-76
2023/10/26 05:39:53;;;;;;;0.00;0.00;;;9.10;100.00;;;;;;4938457;29;20043;-76
2023/10/26 05:42:23;;;;;;;0.00;0.00;;;9.10;100.00;;;;;;4917860;28;20785;-76
2023/10/26 05:44:53;;;;;;;0.00;0.00;;;9.10;100.00;;;;;;4936428;28;20130;-75
2023/10/26 05:47:20;;;;;;;0.00;0.00;;;9.10;100.00;;;;;;4938494;28;20079;-76
2023/10/26 05:49:48;;;;;;;0.00;0.00;;;9.10;100.00;;;;;;4924036;29;20059;-75
2023/10/26 05:52:15;;;;;;;0.00;0.00;;;9.00;100.00;;;;;;4939232;29;20500;-75
2023/10/26 05:54:42;;;;;;;0.00;0.00;;;9.00;100.00;;;;;;4929592;28;20115;-75
2023/10/26 05:57:09;;;;;;;0.00;0.00;;;9.10;100.00;;;;;;4933320;28;20060;-75
2023/10/26 05:59:38;;;;;;;0.00;0.00;;;9.00;100.00;;;;;;4922448;29;20211;-76
2023/10/26 06:02:07;;;;;;;0.00;0.00;;;9.00;100.00;;;;;;4938787;28;20055;-76
2023/10/26 06:04:34;;;;;;;0.00;0.00;;;9.00;100.00;;;;;;4921943;29;20060;-77
2023/10/26 06:07:02;;;;;;;0.00;0.00;;;9.00;100.00;;;;;;4926583;29;20047;-77
2023/10/26 06:09:29;;;;;;;0.00;0.00;;;9.00;100.00;;;;;;4934623;29;20311;-78
2023/10/26 06:11:56;;;;;;;0.00;0.00;;;9.00;100.00;;;;;;4940826;28;20091;-75
2023/10/26 06:14:24;;;;;;;0.00;0.00;;;9.00;100.00;;;;;;4918398;29;20060;-75
2023/10/26 06:16:51;;;;;;;0.00;0.00;;;9.00;100.00;;;;;;4941231;29;20822;-75
2023/10/26 06:19:18;;;;;;;0.00;0.00;;;9.00;100.00;;;;;;4938923;29;20822;-75
2023/10/26 06:21:45;;;;;;;0.00;0.00;;;9.00;100.00;;;;;;4947154;28;20070;-75
2023/10/26 06:24:12;;;;;;;0.00;0.00;;;9.00;100.00;;;;;;4925108;29;20130;-75
2023/10/26 06:26:39;;;;;;;0.00;0.00;;;9.00;100.00;;;;;;4925281;28;20130;-75
2023/10/26 06:29:06;;;;;;;0.00;0.00;;;9.00;100.00;;;;;;4921979;29;20058;-75
2023/10/26 06:31:35;;;;;;;0.00;0.00;;;9.00;100.00;;;;;;4920894;28;20052;-75
2023/10/26 06:34:02;;;;;;;0.00;0.00;;;9.00;100.00;;;;;;4916746;29;20142;-75
2023/10/26 06:36:29;;;;;;;0.00;0.00;;;9.00;100.00;;;;;;4939512;28;20134;-75
2023/10/26 06:38:59;;;;;;;0.00;0.00;;;9.00;100.00;;;;;;4942111;28;20047;-75
2023/10/26 06:41:31;;;;;;;;;;;9.00;100.00;;;;;;4922818;28;20043;-74
2023/10/26 06:43:58;;;;;;;0.00;0.00;;;9.00;100.00;;;;;;4931232;29;20017;-77
2023/10/26 06:46:25;;;;;;;0.00;0.00;;;9.00;100.00;;;;;;4924619;29;20185;-76
2023/10/26 06:48:54;;;;;;;1.35;0.32;;;9.00;100.00;;;;;;4929285;29;20433;-81
2023/10/26 06:51:23;;;;;;;0.00;0.00;;;9.00;100.00;;;;;;4926942;29;20051;-78
2023/10/26 06:53:53;;;;;;;0.00;0.00;;;9.00;100.00;;;;;;4922082;29;20093;-81
2023/10/26 06:56:21;;;;;;;0.00;0.00;;;9.00;100.00;;;;;;4948821;28;20160;-77
2023/10/26 06:58:48;;;;;;;0.00;0.00;;;9.10;100.00;;;;;;4918405;29;20114;-75
2023/10/26 07:01:15;;;;;;;0.00;0.00;;;9.10;100.00;;;;;;4941906;28;20052;-75
2023/10/26 07:03:48;;;;;;;0.00;0.00;;;9.10;100.00;;;;;;4923042;29;20127;-74
2023/10/26 07:06:15;;;;;;;0.00;0.00;;;9.10;100.00;;;;;;4940183;28;20054;-75
2023/10/26 07:08:43;;;;;;;0.00;0.00;;;9.10;100.00;;;;;;4913832;28;20185;-75
2023/10/26 07:11:10;;;;;;;0.00;0.00;;;9.10;100.00;;;;;;4936116;28;20142;-75
2023/10/26 07:13:38;;;;;;;0.00;0.00;;;9.10;100.00;;;;;;4923887;29;20048;-75
2023/10/26 07:16:05;;;;;;;0.00;0.00;;;9.10;100.00;;;;;;4915219;29;20087;-75
2023/10/26 07:18:33;;;;;;;0.00;0.00;;;9.20;100.00;;;;;;4933142;28;20062;-75
2023/10/26 07:21:07;;;;;;;0.00;0.00;;;9.20;100.00;;;;;;4939450;28;20133;-75
2023/10/26 07:23:34;;;;;;;0.00;0.00;;;9.20;100.00;;;;;;4927057;29;20047;-75
2023/10/26 07:26:02;;;;;;;0.00;0.00;;;9.20;100.00;;;;;;4946141;29;20556;-74
2023/10/26 07:28:29;;;;;;;1.67;0.38;;;9.20;100.00;;;;;;4918078;28;20063;-76
2023/10/26 07:30:56;;;;;;;0.00;0.00;;;9.20;100.00;;;;;;4930543;28;20072;-75
2023/10/26 07:33:23;;;;;;;0.00;0.00;;;9.30;100.00;;;;;;4938671;29;20051;-74
2023/10/26 07:35:57;;;;;;;0.00;0.00;;;9.30;100.00;;;;;;4938294;29;20163;-73
2023/10/26 07:38:24;;;;;;;0.00;0.00;;;9.30;100.00;;;;;;4922338;28;20110;-74
2023/10/26 07:41:04;;;;;;;0.00;0.00;;;9.40;100.00;;;;;;4931895;28;20675;-74
2023/10/26 07:43:32;;;;;;;0.00;0.00;;;9.40;100.00;;;;;;4938738;29;20114;-74
2023/10/26 07:46:00;;;;;;;0.00;0.00;;;9.50;100.00;;;;;;4936089;29;20055;-74
2023/10/26 07:48:28;;;;;;;0.00;0.00;;;9.50;100.00;;;;;;4920291;28;20055;-74
2023/10/26 07:50:57;;;;;;;0.00;0.00;;;9.60;100.00;;;;;;4921891;29;20051;-75
2023/10/26 07:53:24;;;;;;;0.00;0.00;;;9.60;100.00;;;;;;4943330;28;20370;-75
2023/10/26 07:55:56;;;;;;;0.00;0.00;;;9.60;100.00;;;;;;4914636;29;20083;-75
2023/10/26 07:58:25;;;;;;;0.10;0.10;;;9.60;100.00;;;;;;4931240;29;20058;-75
2023/10/26 08:00:52;;;;;;;0.00;0.00;;;9.60;100.00;;;;;;4920080;29;20051;-74
2023/10/26 08:03:19;;;;;;;0.00;0.00;;;9.70;100.00;;;;;;4923039;29;20063;-74
2023/10/26 08:06:02;;;;;;;0.00;0.00;;;9.70;100.00;;;;;;4916837;29;20131;-74
2023/10/26 08:08:30;;;;;;;0.00;0.00;;;9.70;100.00;;;;;;4933312;28;20382;-74
2023/10/26 08:11:07;;;;;;;0.00;0.00;;;9.70;100.00;;;;;;4937704;28;20134;-74
2023/10/26 08:13:34;;;;;;;0.00;0.00;;;9.70;100.00;;;;;;4942083;28;20075;-74
2023/10/26 08:16:01;;;;;;;0.00;0.00;;;9.70;100.00;;;;;;4941570;28;20757;-74
2023/10/26 08:18:48;;;;;;;0.00;0.00;;;9.70;100.00;;;;;;4916957;29;20059;-74
2023/10/26 08:21:15;;;;;;;0.00;0.00;;;9.70;100.00;;;;;;4937712;28;20192;-74
2023/10/26 08:23:42;;;;;;;0.00;0.00;;;9.70;100.00;;;;;;4938323;28;21163;-74
2023/10/26 08:26:10;;;;;;;0.00;0.00;;;9.70;100.00;;;;;;4940450;29;20337;-74
2023/10/26 08:28:37;;;;;;;0.00;0.00;;;9.80;100.00;;;;;;4919081;29;20456;-74
2023/10/26 08:31:06;;;;;;;0.00;0.00;;;9.80;100.00;;;;;;4940496;28;20058;-74
2023/10/26 08:33:34;;;;;;;0.00;0.00;;;9.80;100.00;;;;;;4936630;28;20055;-74
2023/10/26 08:36:02;;;;;;;0.00;0.00;;;9.80;100.00;;;;;;4925653;29;20424;-74
2023/10/26 08:38:29;;;;;;;0.00;0.00;;;9.80;100.00;;;;;;4934806;29;20055;-74
2023/10/26 08:40:56;;;;;;;0.00;0.00;;;9.80;100.00;;;;;;4934154;29;20059;-74
2023/10/26 08:43:24;;;;;;;0.00;0.00;;;9.90;100.00;;;;;;4942163;28;20055;-74
2023/10/26 08:45:52;;;;;;;0.00;0.00;;;9.90;100.00;;;;;;4923226;29;20039;-74
2023/10/26 08:48:19;;;;;;;0.00;0.00;;;9.90;100.00;;;;;;4940031;29;20055;-74
2023/10/26 08:50:47;;;;;;;0.00;0.00;;;9.90;100.00;;;;;;4932894;29;20083;-74
2023/10/26 08:53:16;;;;;;;0.00;0.00;;;9.90;100.00;;;;;;4923372;29;20504;-74
2023/10/26 08:55:45;;;;;;;0.00;0.00;;;10.00;100.00;;;;;;4930130;28;20066;-74
2023/10/26 08:58:12;;;;;;;0.00;0.00;;;10.00;100.00;;;;;;4944372;28;20085;-74
2023/10/26 09:00:40;;;;;;;0.00;0.00;;;10.10;100.00;;;;;;4941481;28;20062;-74
2023/10/26 09:03:11;;;;;;;0.00;0.00;;;10.10;100.00;;;;;;4936446;29;20062;-74
2023/10/26 09:05:54;;;;;;;0.00;0.00;;;10.10;100.00;;;;;;4915489;29;20059;-74
2023/10/26 09:08:28;;;;;;;0.00;0.00;;;10.10;100.00;;;;;;4915799;29;20465;-74
2023/10/26 09:10:56;;;;;;;0.00;0.00;;;10.20;100.00;;;;;;4920971;29;20643;-74
2023/10/26 09:13:28;;;;;;;0.00;0.00;;;10.20;100.00;;;;;;4916589;29;20048;-74
2023/10/26 09:15:58;;;;;;;0.00;0.00;;;10.30;100.00;;;;;;4921282;29;20052;-74
2023/10/26 09:18:30;;;;;;;0.00;0.00;;;10.30;100.00;;;;;;4931293;28;20052;-74
2023/10/26 09:21:10;;;;;;;0.00;0.00;;;10.40;100.00;;;;;;4917787;29;20066;-74
2023/10/26 09:23:37;;;;;;;0.00;0.00;;;10.40;100.00;;;;;;4918061;29;20044;-74
2023/10/26 09:26:07;;;;;;;0.00;0.00;;;10.50;100.00;;;;;;4929629;29;20051;-74
2023/10/26 09:28:54;;;;;;;0.00;0.00;;;10.60;100.00;;;;;;4917932;28;20043;-73
2023/10/26 09:31:23;;;;;;;0.00;0.00;;;10.60;100.00;;;;;;4915799;29;20153;-74
2023/10/26 09:33:50;;;;;;;0.00;0.00;;;10.70;100.00;;;;;;4936341;29;20394;-74
2023/10/26 09:36:19;;;;;;;0.00;0.00;;;10.70;100.00;;;;;;4934697;29;20062;-74
2023/10/26 09:38:47;;;;;;;0.00;0.00;;;10.80;100.00;;;;;;4919979;29;20078;-75
2023/10/26 09:41:16;;;;;;;0.10;0.10;;;10.80;100.00;;;;;;4938696;29;20515;-74
2023/10/26 09:43:44;;;;;;;0.00;0.00;;;10.80;100.00;;;;;;4941609;29;20122;-74
2023/10/26 09:46:12;;;;;;;0.00;0.00;;;10.80;100.00;;;;;;4945202;29;20162;-74
2023/10/26 09:48:40;;;;;;;0.00;0.00;;;10.80;100.00;;;;;;4935751;28;20523;-74
2023/10/26 09:51:10;;;;;;;0.00;0.00;;;10.80;100.00;;;;;;4938125;28;20263;-74
2023/10/26 09:53:40;;;;;;;0.00;0.00;;;10.80;100.00;;;;;;4947514;29;20571;-74
2023/10/26 09:56:18;;;;;;;0.00;0.00;;;10.80;100.00;;;;;;4944824;28;20064;-74
2023/10/26 09:58:45;;;;;;;0.00;0.00;;;10.80;100.00;;;;;;4929803;28;20643;-74
2023/10/26 10:01:37;;;;;;;0.00;0.00;;;10.90;100.00;;;;;;4922010;29;20059;-74
2023/10/26 10:04:05;;;;;;;0.00;0.00;;;10.90;100.00;;;;;;4937149;28;20122;-74
2023/10/26 10:07:02;;;;;;;0.00;0.00;;;11.00;100.00;;;;;;4936257;28;20114;-74
2023/10/26 10:09:29;;;;;;;0.00;0.00;;;11.10;100.00;;;;;;4928071;29;20098;-74
2023/10/26 10:12:09;;;;;;;0.00;0.00;;;11.00;100.00;;;;;;4930779;29;20059;-74
2023/10/26 10:14:51;;;;;;;0.00;0.00;;;11.20;100.00;;;;;;4926687;28;20051;-74
2023/10/26 10:17:22;;;;;;;0.00;0.00;;;11.20;100.00;;;;;;4941347;28;20704;-74
2023/10/26 10:20:12;;;;;;;0.00;0.00;;;11.30;100.00;;;;;;4919564;29;20382;-74
2023/10/26 10:22:45;;;;;;;0.00;0.00;;;11.40;100.00;;;;;;4937340;28;20079;-74
2023/10/26 10:25:16;;;;;;;0.00;0.00;;;11.40;100.00;;;;;;4939415;28;20527;-74
2023/10/26 10:27:50;;;;;;;0.00;0.00;;;11.40;100.00;;;;;;4923658;29;20044;-74
2023/10/26 10:30:28;;;;;;;0.00;0.00;;;11.30;100.00;;;;;;4940553;29;20602;-74
2023/10/26 10:32:57;;;;;;;0.00;0.00;;;11.30;100.00;;;;;;4922657;29;20524;-74
2023/10/26 10:35:45;;;;;;;0.00;0.00;;;11.30;100.00;;;;;;4919692;28;20482;-76
2023/10/26 10:40:55;;;;;;;0.00;0.00;;;11.20;100.00;;;;;;4946040;29;20202;-75
2023/10/26 10:43:37;;;;;;;0.00;0.00;;;11.40;100.00;;;;;;4934420;29;20137;-76
2023/10/26 10:46:26;;;;;;;0.00;0.00;;;11.60;100.00;;;;;;4918887;29;20123;-77
2023/10/26 10:49:03;;;;;;;0.00;0.00;;;11.90;100.00;;;;;;4918827;29;20052;-75
2023/10/26 10:51:41;;;;;;;0.00;0.00;;;12.20;100.00;;;;;;4932366;28;20055;-75
2023/10/26 10:54:11;;;;;;;0.00;0.00;;;12.40;100.00;;;;;;4926252;29;20061;-75
2023/10/26 10:57:04;;;;;;;0.00;0.00;;;12.30;100.00;;;;;;4930917;29;20078;-75
2023/10/26 10:59:32;;;;;;;0.00;0.00;;;12.00;100.00;;;;;;4931510;29;20050;-75
2023/10/26 11:02:13;;;;;;;0.00;0.00;;;11.90;100.00;;;;;;4937676;28;20044;-76
2023/10/26 11:04:54;;;;;;;0.00;0.00;;;11.80;100.00;;;;;;4934937;28;20051;-75
2023/10/26 11:07:35;;;;;;;0.00;0.00;;;11.70;100.00;;;;;;4934333;28;20090;-74
2023/10/26 11:10:03;;;;;;;0.00;0.00;;;11.50;100.00;;;;;;4938021;28;20074;-74
2023/10/26 11:12:30;;;;;;;0.00;0.00;;;11.50;100.00;;;;;;4920430;29;20055;-74
2023/10/26 11:15:00;;;;;;;0.00;0.00;;;11.40;100.00;;;;;;4934786;29;20098;-75
2023/10/26 11:17:31;;;;;;;0.00;0.00;;;11.40;100.00;;;;;;4931196;28;20141;-75
2023/10/26 11:19:58;;;;;;;0.00;0.00;;;11.50;100.00;;;;;;4933794;28;20110;-75
2023/10/26 11:22:24;;;;;;;0.00;0.00;;;11.40;100.00;;;;;;4931482;28;20075;-75
2023/10/26 11:24:52;;;;;;;0.00;0.00;;;11.40;100.00;;;;;;4938639;28;20052;-78
2023/10/26 11:27:23;;;;;;;0.00;0.00;;;11.40;100.00;;;;;;4938309;28;20119;-77
2023/10/26 11:30:03;;;;;;;0.00;0.00;;;11.30;100.00;;;;;;4922183;29;20067;-77
2023/10/26 11:32:31;;;;;;;0.00;0.00;;;11.30;100.00;;;;;;4937272;28;20052;-75
2023/10/26 11:35:06;;;;;;;0.00;0.00;;;11.30;100.00;;;;;;4938696;29;20043;-75
2023/10/26 11:37:38;;;;;;;0.00;0.00;;;11.30;100.00;;;;;;4921095;29;20205;-75
2023/10/26 11:40:06;;;;;;;0.00;0.00;;;11.40;100.00;;;;;;4938513;29;20523;-76
2023/10/26 11:42:53;;;;;;;0.00;0.00;;;11.50;100.00;;;;;;4918812;28;20089;-76
2023/10/26 11:45:25;;;;;;;0.00;0.00;;;11.70;100.00;;;;;;4936664;28;20055;-75
2023/10/26 11:48:00;;;;;;;0.00;0.00;;;11.90;100.00;;;;;;4925821;29;20083;-76
2023/10/26 11:50:34;;;;;;;0.00;0.00;;;12.00;100.00;;;;;;4935040;28;20074;-76
2023/10/26 11:53:03;;;;;;;0.00;0.00;;;12.10;100.00;;;;;;4936715;28;20142;-74
2023/10/26 11:55:32;;;;;;;2.47;2.28;;;12.10;100.00;;;;;;4928674;28;20568;-74
2023/10/26 11:58:00;;;;;;;0.00;0.00;;;12.30;100.00;;;;;;4934759;29;20472;-75
2023/10/26 12:00:29;;;;;;;0.00;0.00;;;12.40;100.00;;;;;;4921978;29;20835;-75
2023/10/26 12:03:02;;;;;;;0.00;0.00;;;12.60;100.00;;;;;;4921253;29;20504;-75
2023/10/26 12:08:09;;;;;;;0.00;0.00;;;12.90;100.00;;;;;;4918544;29;20768;-75
2023/10/26 12:10:41;;;;;;;;;;;13.00;100.00;;;;;;4907241;29;20075;-76
2023/10/26 12:13:08;;;;;;;0.00;0.00;;;12.90;100.00;;;;;;4919193;29;19938;-76
2023/10/26 12:15:36;;;;;;;0.00;0.00;;;13.00;100.00;;;;;;4916800;29;20051;-77
2023/10/26 12:18:04;;;;;;;0.00;0.00;;;12.90;100.00;;;;;;4904979;29;20500;-76
2023/10/26 12:20:31;;;;;;;0.00;0.00;;;12.70;100.00;;;;;;4903939;29;20052;-76
2023/10/26 12:22:58;;;;;;;0.00;0.00;;;12.60;100.00;;;;;;4922917;29;20154;-77
2023/10/26 12:25:25;;;;;;;0.00;0.00;;;12.40;100.00;;;;;;4921938;29;20087;-76
2023/10/26 12:27:52;;;;;;;0.00;0.00;;;12.40;100.00;;;;;;4894282;29;20797;-75
2023/10/26 12:30:39;;;;;;;0.00;0.00;;;12.40;100.00;;;;;;4909992;29;20142;-75
2023/10/26 12:33:06;;;;;;;0.00;0.00;;;12.30;100.00;;;;;;4917803;29;20123;-76
2023/10/26 12:35:33;;;;;;;0.00;0.00;;;12.20;100.00;;;;;;4923084;29;20736;-76
2023/10/26 12:38:00;;;;;;;0.00;0.00;;;12.20;100.00;;;;;;4904800;29;20151;-75
2023/10/26 12:40:27;;;;;;;0.00;0.00;;;12.30;100.00;;;;;;4902462;29;20107;-75
2023/10/26 12:42:54;;;;;;;0.00;0.00;;;12.40;100.00;;;;;;4922673;29;20069;-75
2023/10/26 12:45:21;;;;;;;0.00;0.00;;;12.30;100.00;;;;;;4905503;29;20048;-75
2023/10/26 12:47:48;;;;;;;0.00;0.00;;;12.20;100.00;;;;;;4920857;29;20056;-76
2023/10/26 12:50:15;;;;;;;0.00;0.00;;;12.10;100.00;;;;;;4924129;29;20052;-76
2023/10/26 12:52:42;;;;;;;0.00;0.00;;;12.00;100.00;;;;;;4920068;29;20059;-75
2023/10/26 12:55:09;;;;;;;0.00;0.00;;;11.90;100.00;;;;;;4903183;29;20056;-75
2023/10/26 12:57:36;;;;;;;0.00;0.00;;;11.80;100.00;;;;;;4922086;29;20059;-76
2023/10/26 13:00:03;;;;;;;0.00;0.00;;;11.70;100.00;;;;;;4917355;29;20134;-73
2023/10/26 13:02:32;;;;;;;0.00;0.00;;;11.50;100.00;;;;;;4905129;29;20052;-73